createdAt,value
2023-05-23T00:01:28.040Z,8.18
2023-05-23T00:06:29.642Z,7.60
2023-05-23T00:11:31.334Z,7.85
2023-05-23T00:16:33.131Z,8.45
2023-05-23T00:21:34.724Z,7.85
2023-05-23T00:26:36.685Z,8.18
2023-05-23T00:31:38.461Z,8.23
2023-05-23T00:36:40.479Z,8.38
2023-05-23T00:41:42.053Z,8.57
2023-05-23T00:46:45.513Z,8.23
2023-05-23T00:51:48.409Z,8.98
2023-05-23T00:56:50.621Z,10.20
2023-05-23T01:01:55.822Z,9.93
2023-05-23T01:06:57.786Z,10.82
2023-05-23T01:12:17.694Z,10.15
2023-05-23T01:17:26.690Z,11.25
2023-05-23T01:22:41.628Z,9.10
2023-05-23T01:27:51.197Z,8.98
2023-05-23T01:32:55.874Z,8.40
2023-05-23T01:37:57.736Z,6.80
2023-05-23T01:42:59.461Z,6.78
2023-05-23T01:48:04.083Z,7.47
2023-05-23T01:53:06.983Z,6.05
2023-05-23T01:58:09.098Z,8.65
2023-05-23T02:03:10.910Z,8.63
2023-05-23T02:08:12.538Z,8.23
2023-05-23T02:13:14.105Z,7.45
2023-05-23T02:18:15.686Z,6.05
2023-05-23T02:23:18.195Z,5.10
2023-05-23T02:28:20.261Z,4.15
2023-05-23T02:33:24.194Z,4.00
2023-05-23T02:38:26.708Z,3.67
2023-05-23T02:43:28.597Z,3.65
2023-05-23T02:48:30.256Z,3.40
2023-05-23T02:53:32.066Z,3.65
2023-05-23T02:58:33.790Z,3.55
2023-05-23T03:03:35.514Z,3.97
2023-05-23T03:08:37.190Z,3.50
2023-05-23T03:13:39.776Z,3.88
2023-05-23T03:18:43.233Z,4.10
2023-05-23T03:23:44.843Z,4.00
2023-05-23T03:28:46.467Z,4.65
2023-05-23T03:33:48.011Z,4.43
2023-05-23T03:38:50.828Z,4.93
2023-05-23T03:43:52.799Z,5.00
2023-05-23T03:48:54.559Z,5.57
2023-05-23T03:53:57.422Z,6.25
2023-05-23T03:58:59.413Z,6.80
2023-05-23T04:04:01.341Z,7.65
2023-05-23T04:09:07.492Z,6.57
2023-05-23T04:14:13.787Z,7.00
2023-05-23T04:19:16.362Z,7.05
2023-05-23T04:24:18.491Z,6.85
2023-05-23T04:29:20.274Z,7.15
2023-05-23T04:34:23.331Z,7.47
2023-05-23T04:39:24.965Z,6.32
2023-05-23T04:44:52.391Z,5.20
2023-05-23T04:49:58.976Z,4.75
2023-05-23T04:55:01.108Z,5.95
2023-05-23T05:00:06.561Z,5.45
2023-05-23T05:05:10.133Z,5.72
2023-05-23T05:10:11.865Z,4.65
2023-05-23T05:15:13.637Z,5.43
2023-05-23T05:20:17.074Z,5.50
2023-05-23T05:25:18.820Z,5.90
2023-05-23T05:30:20.640Z,4.50
2023-05-23T05:35:33.129Z,6.30
2023-05-23T05:40:34.989Z,6.20
2023-05-23T05:45:37.351Z,5.60
2023-05-23T05:50:39.501Z,6.13
2023-05-23T05:55:42.189Z,6.88
2023-05-23T06:00:44.094Z,5.35
2023-05-23T06:05:45.744Z,6.65
2023-05-23T06:10:47.340Z,6.10
2023-05-23T06:15:49.112Z,6.50
2023-05-23T06:20:50.709Z,5.40
2023-05-23T06:25:53.676Z,6.10
2023-05-23T06:30:55.468Z,6.68
2023-05-23T06:35:57.038Z,6.80
2023-05-23T06:40:58.635Z,7.05
2023-05-23T06:46:00.991Z,7.13
2023-05-23T06:51:03.874Z,7.03
2023-05-23T06:56:06.098Z,7.30
2023-05-23T07:01:14.970Z,6.95
2023-05-23T07:11:23.070Z,6.70
2023-05-23T07:21:38.335Z,6.88
2023-05-23T07:26:41.696Z,6.95
2023-05-23T07:31:43.504Z,5.97
2023-05-23T07:36:47.203Z,6.78
2023-05-23T07:41:50.305Z,5.95
2023-05-23T07:46:53.473Z,5.60
2023-05-23T07:51:56.268Z,6.50
2023-05-23T07:56:58.098Z,5.65
2023-05-23T08:02:00.520Z,5.43
2023-05-23T08:07:05.896Z,5.32
2023-05-23T08:12:25.752Z,4.97
2023-05-23T08:17:36.286Z,5.65
2023-05-23T08:22:38.511Z,5.30
2023-05-23T08:27:40.836Z,6.03
2023-05-23T08:33:05.780Z,5.00
2023-05-23T08:38:09.626Z,5.68
2023-05-23T08:43:16.681Z,5.82
2023-05-23T08:48:20.400Z,5.20
2023-05-23T08:53:27.248Z,5.65
2023-05-23T08:58:36.229Z,4.78
2023-05-23T09:03:39.314Z,5.57
2023-05-23T09:08:51.036Z,6.30
2023-05-23T09:13:55.174Z,7.32
2023-05-23T09:18:58.464Z,7.05
2023-05-23T09:24:02.858Z,5.82
2023-05-23T09:29:06.378Z,6.68
2023-05-23T09:34:08.114Z,6.35
2023-05-23T09:39:12.004Z,6.90
2023-05-23T09:44:14.065Z,6.53
2023-05-23T09:49:17.525Z,6.45
2023-05-23T09:54:20.702Z,6.13
2023-05-23T09:59:23.392Z,6.63
2023-05-23T10:04:26.056Z,7.13
2023-05-23T10:09:33.039Z,7.93
2023-05-23T10:14:40.770Z,9.27
2023-05-23T10:20:01.012Z,16.75
2023-05-23T10:25:06.179Z,25.17
2023-05-23T10:30:08.809Z,24.50
2023-05-23T10:35:25.067Z,21.25
2023-05-23T10:40:26.675Z,16.88
2023-05-23T10:45:28.533Z,11.73
2023-05-23T10:50:35.308Z,7.03
2023-05-23T10:55:37.642Z,7.57
2023-05-23T11:00:39.649Z,7.00
2023-05-23T11:05:47.919Z,6.38
2023-05-23T11:10:53.374Z,5.68
2023-05-23T11:15:55.055Z,6.28
2023-05-23T11:21:00.855Z,6.38
2023-05-23T11:31:04.109Z,6.15
2023-05-23T11:36:07.254Z,6.50
2023-05-23T11:41:08.821Z,6.53
2023-05-23T11:46:10.604Z,7.78
2023-05-23T11:51:12.595Z,7.38
2023-05-23T11:56:15.124Z,7.47
2023-05-23T12:01:16.800Z,10.13
2023-05-23T12:06:22.865Z,8.60
2023-05-23T12:11:24.451Z,9.50
2023-05-23T12:16:27.962Z,8.30
2023-05-23T12:21:46.153Z,8.70
2023-05-23T12:26:50.797Z,9.73
2023-05-23T12:31:52.815Z,11.13
2023-05-23T12:37:18.107Z,11.30
2023-05-23T12:42:20.993Z,10.57
2023-05-23T12:47:22.756Z,10.70
2023-05-23T12:52:24.350Z,10.20
2023-05-23T12:57:25.890Z,9.80
2023-05-23T13:02:28.499Z,6.82
2023-05-23T13:07:30.759Z,8.63
2023-05-23T13:12:32.329Z,14.02
2023-05-23T13:17:34.066Z,10.52
2023-05-23T13:22:35.689Z,10.95
2023-05-23T13:27:37.409Z,12.18
2023-05-23T13:32:39.069Z,13.98
2023-05-23T13:37:40.831Z,11.10
2023-05-23T13:42:42.451Z,9.63
2023-05-23T13:47:44.524Z,7.80
2023-05-23T13:52:49.015Z,8.68
2023-05-23T13:57:51.911Z,7.10
2023-05-23T14:02:53.531Z,8.73
2023-05-23T14:07:55.194Z,7.95
2023-05-23T14:12:56.922Z,8.32
2023-05-23T14:17:58.463Z,8.95
2023-05-23T14:23:00.138Z,8.90
2023-05-23T14:28:01.761Z,8.27
2023-05-23T14:33:03.526Z,7.38
2023-05-23T14:38:05.190Z,7.20
2023-05-23T14:43:06.839Z,7.57
2023-05-23T14:48:10.231Z,7.70
2023-05-23T14:53:11.878Z,8.85
2023-05-23T14:58:13.592Z,8.77
2023-05-23T15:03:15.733Z,8.38
2023-05-23T15:08:17.636Z,8.02
2023-05-23T15:13:19.275Z,9.05
2023-05-23T15:18:35.737Z,7.20
2023-05-23T15:23:41.956Z,8.02
2023-05-23T15:28:43.754Z,7.97
2023-05-23T15:33:45.542Z,8.68
2023-05-23T15:38:47.314Z,9.15
2023-05-23T15:43:48.862Z,9.38
2023-05-23T15:48:50.456Z,9.57
2023-05-23T15:58:56.760Z,8.25
2023-05-23T16:03:58.469Z,9.43
2023-05-23T16:09:00.159Z,7.88
2023-05-23T16:14:01.900Z,8.55
2023-05-23T16:19:03.686Z,8.45
2023-05-23T16:24:05.571Z,9.73
2023-05-23T16:29:07.230Z,8.52
2023-05-23T16:34:08.798Z,8.88
2023-05-23T16:39:11.158Z,9.32
2023-05-23T16:44:13.903Z,9.75
2023-05-23T16:49:15.505Z,8.25
2023-05-23T16:54:17.089Z,8.40
2023-05-23T16:59:18.767Z,7.00
2023-05-23T17:04:20.581Z,6.25
2023-05-23T17:09:22.607Z,5.82
2023-05-23T17:14:24.243Z,3.88
2023-05-23T17:19:26.122Z,4.03
2023-05-23T17:24:27.762Z,4.78
2023-05-23T17:29:29.330Z,4.07
2023-05-23T17:34:30.900Z,4.85
2023-05-23T17:39:32.489Z,4.43
2023-05-23T17:44:34.184Z,3.75
2023-05-23T17:49:35.768Z,3.75
2023-05-23T17:54:37.426Z,4.03
2023-05-23T17:59:38.993Z,3.50
2023-05-23T18:04:41.990Z,3.80
2023-05-23T18:09:43.883Z,5.38
2023-05-23T18:14:45.597Z,5.57
2023-05-23T18:19:47.226Z,6.72
2023-05-23T18:24:48.848Z,6.18
2023-05-23T18:29:50.445Z,5.40
2023-05-23T18:34:52.058Z,5.10
2023-05-23T18:39:54.049Z,3.65
2023-05-23T18:44:55.620Z,4.38
2023-05-23T18:49:57.250Z,3.65
2023-05-23T18:54:58.818Z,3.17
2023-05-23T19:00:00.592Z,4.50
2023-05-23T19:05:02.535Z,3.28
2023-05-23T19:10:05.161Z,3.80
2023-05-23T19:15:09.793Z,2.65
2023-05-23T19:20:11.890Z,2.60
2023-05-23T19:25:13.570Z,3.22
2023-05-23T19:30:15.267Z,2.80
2023-05-23T19:35:17.383Z,2.28
2023-05-23T19:40:19.253Z,3.05
2023-05-23T19:45:20.864Z,2.92
2023-05-23T19:50:22.499Z,3.22
2023-05-23T19:55:24.150Z,2.88
2023-05-23T20:00:25.889Z,3.00
2023-05-23T20:05:27.472Z,4.00
2023-05-23T20:10:30.258Z,4.05
2023-05-23T20:20:40.206Z,2.80
2023-05-23T20:25:42.099Z,2.85
2023-05-23T20:30:43.807Z,2.70
2023-05-23T20:35:45.555Z,3.70
2023-05-23T20:40:47.122Z,2.63
2023-05-23T20:45:48.713Z,2.80
2023-05-23T20:50:50.330Z,3.10
2023-05-23T20:55:52.246Z,3.03
2023-05-23T21:00:53.960Z,2.63
2023-05-23T21:05:55.513Z,3.60
2023-05-23T21:10:57.084Z,2.80
2023-05-23T21:15:58.711Z,2.88
2023-05-23T21:21:00.277Z,2.97
2023-05-23T21:26:01.959Z,4.88
2023-05-23T21:31:03.710Z,3.85
2023-05-23T21:36:05.421Z,2.65
2023-05-23T21:41:07.063Z,3.33
2023-05-23T21:46:08.745Z,2.80
2023-05-23T21:51:10.470Z,2.67
2023-05-23T21:56:12.048Z,3.40
2023-05-23T22:01:14.185Z,2.45
2023-05-23T22:06:15.890Z,3.63
2023-05-23T22:11:17.533Z,3.30
2023-05-23T22:16:19.152Z,3.22
2023-05-23T22:21:20.727Z,3.03
2023-05-23T22:26:22.319Z,2.70
2023-05-23T22:31:24.383Z,2.88
2023-05-23T22:36:26.221Z,2.88
2023-05-23T22:41:28.351Z,2.90
2023-05-23T22:46:29.952Z,3.25
2023-05-23T22:51:31.491Z,2.60
2023-05-23T22:56:33.155Z,3.28
2023-05-23T23:01:34.917Z,2.83
2023-05-23T23:06:36.718Z,3.20
2023-05-23T23:11:38.352Z,3.13
2023-05-23T23:16:39.916Z,2.97
2023-05-23T23:21:41.495Z,3.00
2023-05-23T23:26:43.261Z,3.72
2023-05-23T23:31:44.901Z,3.03
2023-05-23T23:36:46.530Z,3.42
2023-05-23T23:41:48.066Z,3.58
2023-05-23T23:46:49.732Z,2.85
2023-05-23T23:51:51.383Z,3.33
2023-05-23T23:56:52.973Z,2.97
